Hauptseite
METAR-TAF:

METAR-TAF

Flughäfen :

Yap, Mikronesien

Breite: 09-29N, Länge: 138-05E, Höhe: 28 m

Beobachtung

Neuester Wetterbericht von vor 24 Minuten, um 13:51 UTC
Wind 13 kt aus Ost
Temperatur 29°C
Luftfeuchtigkeit 84%
Luftdruck 1008 hPa
Sichtweite: 19.3 km
Leicht bewölkt in der Höhe von 1600 ft
Durchbrochene Bewölkung in der Höhe von 13000 ft
Geschlossene Wolkendecke in der Höhe von 30000 ft

METAR: PTYA 211351Z 08013KT 12SM FEW016 BKN130 OVC300 29/26 A2978 RMK SLP084 T02880257

Zeit: 00:15 (14:15 UTC)

Prognose

Neuester Wetterbericht von vor 2 Stunden und 55 Minuten, um 11:20 UTC
Gültige Prognose vom 21 um 12 UTC bis 22 um 12 UTC
Wind 11 kt aus Ost/Nordost
Sichtweite: 10 km
Durchbrochene Bewölkung in der Höhe von 1600 ft
Durchbrochene Bewölkung in der Höhe von 12000 ft
Schauer in der Nähe,

TAF: PTYA 211120Z 2112/2212 07011KT P6SM VCSH BKN016 BKN120

Wetterbeobachtungen und Prognosen von mehr als 4000 Flughäfen (METAR und TAF Bericht).

Die verfügbaren Stationen werden durch gelbe und rote Markierungen auf der Karte dargestellt.

Führen Sie die Maus auf sie, um den Namen der Station zu sehen.

Darauf klicken, um die Beobachtung von Wetterbeobachtungen und Prognosen zu sehen.

Um die Karte zu ändern : klicken Sie auf den grünen Tasten mit einem schwarzen Kreuz Zum Vergrößern, auf den grünen Button mit einem Gedankenstrich zu verkleinern, oder auf die grünen Pfeile für benachbarte Karten.


METAR-TAF: